sensor_id;sensor_type;location;lat;lon;timestamp;P1;durP1;ratioP1;P2;durP2;ratioP2
41653;SDS011;30790;52.030;7.110;2022-07-23T00:00:09;3.78;;;1.92;;
41653;SDS011;30790;52.030;7.110;2022-07-23T00:02:35;4.28;;;2.22;;
41653;SDS011;30790;52.030;7.110;2022-07-23T00:05:01;3.30;;;1.98;;
41653;SDS011;30790;52.030;7.110;2022-07-23T00:07:27;3.97;;;1.65;;
41653;SDS011;30790;52.030;7.110;2022-07-23T00:09:52;2.92;;;1.83;;
41653;SDS011;30790;52.030;7.110;2022-07-23T00:12:18;3.25;;;1.80;;
41653;SDS011;30790;52.030;7.110;2022-07-23T00:14:43;3.10;;;1.80;;
41653;SDS011;30790;52.030;7.110;2022-07-23T00:17:08;3.78;;;1.83;;
41653;SDS011;30790;52.030;7.110;2022-07-23T00:19:34;4.10;;;1.80;;
41653;SDS011;30790;52.030;7.110;2022-07-23T00:21:59;4.43;;;2.03;;
41653;SDS011;30790;52.030;7.110;2022-07-23T00:24:24;2.92;;;1.90;;
41653;SDS011;30790;52.030;7.110;2022-07-23T00:26:50;3.13;;;1.83;;
41653;SDS011;30790;52.030;7.110;2022-07-23T00:29:15;3.08;;;1.63;;
41653;SDS011;30790;52.030;7.110;2022-07-23T00:31:40;4.28;;;2.25;;
41653;SDS011;30790;52.030;7.110;2022-07-23T00:34:06;4.15;;;1.70;;
41653;SDS011;30790;52.030;7.110;2022-07-23T00:36:31;3.38;;;1.65;;
41653;SDS011;30790;52.030;7.110;2022-07-23T00:38:57;2.35;;;1.60;;
41653;SDS011;30790;52.030;7.110;2022-07-23T00:41:22;3.05;;;1.67;;
41653;SDS011;30790;52.030;7.110;2022-07-23T00:43:48;2.95;;;1.40;;
41653;SDS011;30790;52.030;7.110;2022-07-23T00:46:18;2.20;;;1.60;;
41653;SDS011;30790;52.030;7.110;2022-07-23T00:48:44;4.90;;;1.58;;
41653;SDS011;30790;52.030;7.110;2022-07-23T00:51:09;3.05;;;1.80;;
41653;SDS011;30790;52.030;7.110;2022-07-23T00:53:35;2.28;;;1.55;;
41653;SDS011;30790;52.030;7.110;2022-07-23T00:56:00;2.08;;;1.60;;
41653;SDS011;30790;52.030;7.110;2022-07-23T00:58:25;2.47;;;1.42;;
41653;SDS011;30790;52.030;7.110;2022-07-23T01:00:51;2.75;;;2.05;;
41653;SDS011;30790;52.030;7.110;2022-07-23T01:03:16;4.10;;;1.60;;
41653;SDS011;30790;52.030;7.110;2022-07-23T01:05:42;2.55;;;1.85;;
41653;SDS011;30790;52.030;7.110;2022-07-23T01:08:07;5.15;;;1.90;;
41653;SDS011;30790;52.030;7.110;2022-07-23T01:10:32;3.28;;;1.70;;
41653;SDS011;30790;52.030;7.110;2022-07-23T01:13:02;3.00;;;1.95;;
41653;SDS011;30790;52.030;7.110;2022-07-23T01:15:29;2.05;;;1.73;;
41653;SDS011;30790;52.030;7.110;2022-07-23T01:17:55;7.78;;;1.92;;
41653;SDS011;30790;52.030;7.110;2022-07-23T01:20:21;4.40;;;2.05;;
41653;SDS011;30790;52.030;7.110;2022-07-23T01:22:47;2.70;;;1.90;;
41653;SDS011;30790;52.030;7.110;2022-07-23T01:25:12;2.55;;;1.80;;
41653;SDS011;30790;52.030;7.110;2022-07-23T01:27:38;4.50;;;1.70;;
41653;SDS011;30790;52.030;7.110;2022-07-23T01:30:03;4.57;;;1.65;;
41653;SDS011;30790;52.030;7.110;2022-07-23T01:32:29;3.05;;;1.50;;
41653;SDS011;30790;52.030;7.110;2022-07-23T01:34:55;2.75;;;1.80;;
41653;SDS011;30790;52.030;7.110;2022-07-23T01:37:21;2.67;;;1.70;;
41653;SDS011;30790;52.030;7.110;2022-07-23T01:39:46;3.28;;;1.63;;
41653;SDS011;30790;52.030;7.110;2022-07-23T01:42:12;2.92;;;1.55;;
41653;SDS011;30790;52.030;7.110;2022-07-23T01:44:37;1.60;;;1.50;;
41653;SDS011;30790;52.030;7.110;2022-07-23T01:47:02;2.85;;;1.90;;
41653;SDS011;30790;52.030;7.110;2022-07-23T01:49:28;3.33;;;1.90;;
41653;SDS011;30790;52.030;7.110;2022-07-23T01:51:53;3.67;;;2.03;;
41653;SDS011;30790;52.030;7.110;2022-07-23T01:54:31;2.40;;;1.55;;
41653;SDS011;30790;52.030;7.110;2022-07-23T01:56:58;2.35;;;1.80;;
41653;SDS011;30790;52.030;7.110;2022-07-23T01:59:24;2.35;;;1.50;;
41653;SDS011;30790;52.030;7.110;2022-07-23T02:01:50;3.42;;;1.58;;
41653;SDS011;30790;52.030;7.110;2022-07-23T02:04:20;2.95;;;1.52;;
41653;SDS011;30790;52.030;7.110;2022-07-23T02:06:46;3.40;;;1.40;;
41653;SDS011;30790;52.030;7.110;2022-07-23T02:09:12;4.30;;;2.13;;
41653;SDS011;30790;52.030;7.110;2022-07-23T02:11:38;4.85;;;1.50;;
41653;SDS011;30790;52.030;7.110;2022-07-23T02:14:04;2.10;;;1.80;;
41653;SDS011;30790;52.030;7.110;2022-07-23T02:16:29;1.40;;;1.30;;
41653;SDS011;30790;52.030;7.110;2022-07-23T02:18:54;2.90;;;1.50;;
41653;SDS011;30790;52.030;7.110;2022-07-23T02:21:20;2.90;;;1.65;;
41653;SDS011;30790;52.030;7.110;2022-07-23T02:23:46;1.52;;;1.42;;
41653;SDS011;30790;52.030;7.110;2022-07-23T02:26:11;1.50;;;1.40;;
41653;SDS011;30790;52.030;7.110;2022-07-23T02:28:37;1.98;;;1.48;;
41653;SDS011;30790;52.030;7.110;2022-07-23T02:31:02;1.63;;;1.25;;
41653;SDS011;30790;52.030;7.110;2022-07-23T02:33:28;1.55;;;1.25;;
41653;SDS011;30790;52.030;7.110;2022-07-23T02:35:54;1.90;;;1.40;;
41653;SDS011;30790;52.030;7.110;2022-07-23T02:38:19;2.45;;;1.73;;
41653;SDS011;30790;52.030;7.110;2022-07-23T02:40:44;2.78;;;1.65;;
41653;SDS011;30790;52.030;7.110;2022-07-23T02:43:10;2.90;;;1.52;;
41653;SDS011;30790;52.030;7.110;2022-07-23T02:45:35;2.65;;;1.42;;
41653;SDS011;30790;52.030;7.110;2022-07-23T02:48:01;2.65;;;1.58;;
41653;SDS011;30790;52.030;7.110;2022-07-23T02:50:26;1.90;;;1.50;;
41653;SDS011;30790;52.030;7.110;2022-07-23T02:52:51;1.92;;;1.42;;
41653;SDS011;30790;52.030;7.110;2022-07-23T02:55:17;1.77;;;1.55;;
41653;SDS011;30790;52.030;7.110;2022-07-23T02:57:42;2.03;;;1.40;;
41653;SDS011;30790;52.030;7.110;2022-07-23T03:00:08;2.13;;;1.50;;
41653;SDS011;30790;52.030;7.110;2022-07-23T03:02:33;1.92;;;1.40;;
41653;SDS011;30790;52.030;7.110;2022-07-23T03:04:59;2.13;;;1.67;;
41653;SDS011;30790;52.030;7.110;2022-07-23T03:07:24;2.42;;;1.60;;
41653;SDS011;30790;52.030;7.110;2022-07-23T03:09:50;1.90;;;1.70;;
41653;SDS011;30790;52.030;7.110;2022-07-23T03:12:15;1.98;;;1.40;;
41653;SDS011;30790;52.030;7.110;2022-07-23T03:14:41;1.50;;;1.17;;
41653;SDS011;30790;52.030;7.110;2022-07-23T03:17:06;2.45;;;1.70;;
41653;SDS011;30790;52.030;7.110;2022-07-23T03:19:32;1.52;;;1.42;;
41653;SDS011;30790;52.030;7.110;2022-07-23T03:21:58;1.95;;;1.20;;
41653;SDS011;30790;52.030;7.110;2022-07-23T03:24:23;2.35;;;1.50;;
41653;SDS011;30790;52.030;7.110;2022-07-23T03:27:08;1.20;;;1.08;;
41653;SDS011;30790;52.030;7.110;2022-07-23T03:29:34;1.50;;;1.40;;
41653;SDS011;30790;52.030;7.110;2022-07-23T03:31:59;1.90;;;1.25;;
41653;SDS011;30790;52.030;7.110;2022-07-23T03:34:24;1.60;;;1.40;;
41653;SDS011;30790;52.030;7.110;2022-07-23T03:36:50;1.45;;;1.35;;
41653;SDS011;30790;52.030;7.110;2022-07-23T03:39:15;1.85;;;1.45;;
41653;SDS011;30790;52.030;7.110;2022-07-23T03:41:40;1.45;;;1.30;;
41653;SDS011;30790;52.030;7.110;2022-07-23T03:44:06;1.35;;;1.25;;
41653;SDS011;30790;52.030;7.110;2022-07-23T03:46:31;1.80;;;1.38;;
41653;SDS011;30790;52.030;7.110;2022-07-23T03:48:57;1.98;;;1.63;;
41653;SDS011;30790;52.030;7.110;2022-07-23T03:51:22;4.35;;;1.33;;
41653;SDS011;30790;52.030;7.110;2022-07-23T03:53:47;1.40;;;1.30;;
41653;SDS011;30790;52.030;7.110;2022-07-23T03:56:14;1.33;;;1.20;;
41653;SDS011;30790;52.030;7.110;2022-07-23T03:58:39;1.88;;;1.13;;
41653;SDS011;30790;52.030;7.110;2022-07-23T04:01:04;1.60;;;1.40;;
41653;SDS011;30790;52.030;7.110;2022-07-23T04:03:30;1.60;;;1.40;;
41653;SDS011;30790;52.030;7.110;2022-07-23T04:05:55;2.03;;;1.50;;
41653;SDS011;30790;52.030;7.110;2022-07-23T04:08:20;1.73;;;1.55;;
41653;SDS011;30790;52.030;7.110;2022-07-23T04:10:47;2.55;;;1.35;;
41653;SDS011;30790;52.030;7.110;2022-07-23T04:13:12;1.77;;;1.60;;
41653;SDS011;30790;52.030;7.110;2022-07-23T04:15:37;2.15;;;1.50;;
41653;SDS011;30790;52.030;7.110;2022-07-23T04:18:03;1.30;;;1.20;;
41653;SDS011;30790;52.030;7.110;2022-07-23T04:20:28;1.55;;;1.45;;
41653;SDS011;30790;52.030;7.110;2022-07-23T04:22:53;1.90;;;1.50;;
41653;SDS011;30790;52.030;7.110;2022-07-23T04:25:19;2.85;;;1.65;;
41653;SDS011;30790;52.030;7.110;2022-07-23T04:27:44;2.05;;;1.48;;
41653;SDS011;30790;52.030;7.110;2022-07-23T04:30:10;2.92;;;1.30;;
41653;SDS011;30790;52.030;7.110;2022-07-23T04:32:35;1.38;;;1.27;;
41653;SDS011;30790;52.030;7.110;2022-07-23T04:35:01;1.67;;;1.20;;
41653;SDS011;30790;52.030;7.110;2022-07-23T04:37:27;2.25;;;1.30;;
41653;SDS011;30790;52.030;7.110;2022-07-23T04:39:52;1.13;;;1.00;;
41653;SDS011;30790;52.030;7.110;2022-07-23T04:42:18;1.83;;;1.40;;
41653;SDS011;30790;52.030;7.110;2022-07-23T04:44:43;1.80;;;1.40;;
41653;SDS011;30790;52.030;7.110;2022-07-23T04:47:09;1.50;;;1.40;;
41653;SDS011;30790;52.030;7.110;2022-07-23T04:49:35;1.42;;;1.33;;
41653;SDS011;30790;52.030;7.110;2022-07-23T04:52:01;1.48;;;1.38;;
41653;SDS011;30790;52.030;7.110;2022-07-23T04:54:26;1.95;;;1.30;;
41653;SDS011;30790;52.030;7.110;2022-07-23T04:56:51;1.60;;;1.23;;
41653;SDS011;30790;52.030;7.110;2022-07-23T04:59:17;1.33;;;1.20;;
41653;SDS011;30790;52.030;7.110;2022-07-23T05:01:42;3.63;;;1.85;;
41653;SDS011;30790;52.030;7.110;2022-07-23T05:04:08;1.30;;;1.20;;
41653;SDS011;30790;52.030;7.110;2022-07-23T05:06:33;1.35;;;1.25;;
41653;SDS011;30790;52.030;7.110;2022-07-23T05:08:59;2.17;;;1.10;;
41653;SDS011;30790;52.030;7.110;2022-07-23T05:11:24;2.03;;;1.50;;
41653;SDS011;30790;52.030;7.110;2022-07-23T05:13:49;2.95;;;1.90;;
41653;SDS011;30790;52.030;7.110;2022-07-23T05:16:16;8.35;;;3.53;;
41653;SDS011;30790;52.030;7.110;2022-07-23T05:18:41;5.65;;;3.75;;
41653;SDS011;30790;52.030;7.110;2022-07-23T05:21:07;4.70;;;4.15;;
41653;SDS011;30790;52.030;7.110;2022-07-23T05:23:32;9.02;;;4.47;;
41653;SDS011;30790;52.030;7.110;2022-07-23T05:25:57;7.57;;;4.18;;
41653;SDS011;30790;52.030;7.110;2022-07-23T05:28:22;7.35;;;4.10;;
41653;SDS011;30790;52.030;7.110;2022-07-23T05:30:48;9.00;;;3.92;;
41653;SDS011;30790;52.030;7.110;2022-07-23T05:33:13;7.78;;;4.05;;
41653;SDS011;30790;52.030;7.110;2022-07-23T05:35:39;6.53;;;4.78;;
41653;SDS011;30790;52.030;7.110;2022-07-23T05:38:04;10.13;;;5.35;;
41653;SDS011;30790;52.030;7.110;2022-07-23T05:40:29;6.63;;;5.10;;
41653;SDS011;30790;52.030;7.110;2022-07-23T05:42:55;13.63;;;5.90;;
41653;SDS011;30790;52.030;7.110;2022-07-23T05:45:20;8.82;;;4.75;;
41653;SDS011;30790;52.030;7.110;2022-07-23T05:47:47;9.50;;;6.00;;
41653;SDS011;30790;52.030;7.110;2022-07-23T05:50:15;10.93;;;5.65;;
41653;SDS011;30790;52.030;7.110;2022-07-23T05:52:41;9.20;;;6.00;;
41653;SDS011;30790;52.030;7.110;2022-07-23T05:55:07;12.60;;;5.85;;
41653;SDS011;30790;52.030;7.110;2022-07-23T05:57:33;8.82;;;5.18;;
41653;SDS011;30790;52.030;7.110;2022-07-23T05:59:59;8.23;;;4.85;;
41653;SDS011;30790;52.030;7.110;2022-07-23T06:02:24;14.93;;;6.38;;
41653;SDS011;30790;52.030;7.110;2022-07-23T06:04:50;19.27;;;6.43;;
41653;SDS011;30790;52.030;7.110;2022-07-23T06:07:15;11.23;;;5.60;;
41653;SDS011;30790;52.030;7.110;2022-07-23T06:09:40;14.43;;;5.78;;
41653;SDS011;30790;52.030;7.110;2022-07-23T06:12:06;13.98;;;5.85;;
41653;SDS011;30790;52.030;7.110;2022-07-23T06:14:31;10.95;;;5.53;;
41653;SDS011;30790;52.030;7.110;2022-07-23T06:16:57;10.07;;;6.20;;
41653;SDS011;30790;52.030;7.110;2022-07-23T06:19:22;10.32;;;6.70;;
41653;SDS011;30790;52.030;7.110;2022-07-23T06:21:47;12.38;;;6.85;;
41653;SDS011;30790;52.030;7.110;2022-07-23T06:24:12;10.15;;;7.25;;
41653;SDS011;30790;52.030;7.110;2022-07-23T06:26:38;11.57;;;5.32;;
41653;SDS011;30790;52.030;7.110;2022-07-23T06:29:03;14.18;;;5.57;;
41653;SDS011;30790;52.030;7.110;2022-07-23T06:31:29;8.80;;;5.07;;
41653;SDS011;30790;52.030;7.110;2022-07-23T06:33:54;5.90;;;4.65;;
41653;SDS011;30790;52.030;7.110;2022-07-23T06:36:19;6.57;;;4.60;;
41653;SDS011;30790;52.030;7.110;2022-07-23T06:38:45;6.85;;;4.00;;
41653;SDS011;30790;52.030;7.110;2022-07-23T06:41:10;7.03;;;3.80;;
41653;SDS011;30790;52.030;7.110;2022-07-23T06:43:35;9.00;;;4.20;;
41653;SDS011;30790;52.030;7.110;2022-07-23T06:46:01;9.32;;;4.35;;
41653;SDS011;30790;52.030;7.110;2022-07-23T06:48:26;6.88;;;4.10;;
41653;SDS011;30790;52.030;7.110;2022-07-23T06:50:51;8.18;;;3.88;;
41653;SDS011;30790;52.030;7.110;2022-07-23T06:53:17;11.88;;;3.92;;
41653;SDS011;30790;52.030;7.110;2022-07-23T06:55:43;4.60;;;3.22;;
41653;SDS011;30790;52.030;7.110;2022-07-23T06:58:08;5.75;;;3.10;;
41653;SDS011;30790;52.030;7.110;2022-07-23T07:00:35;4.53;;;3.22;;
41653;SDS011;30790;52.030;7.110;2022-07-23T07:03:00;5.32;;;2.95;;
41653;SDS011;30790;52.030;7.110;2022-07-23T07:05:26;5.93;;;2.60;;
41653;SDS011;30790;52.030;7.110;2022-07-23T07:07:53;9.35;;;2.72;;
41653;SDS011;30790;52.030;7.110;2022-07-23T07:10:19;9.07;;;2.45;;
41653;SDS011;30790;52.030;7.110;2022-07-23T07:12:45;3.60;;;2.45;;
41653;SDS011;30790;52.030;7.110;2022-07-23T07:15:10;4.75;;;2.30;;
41653;SDS011;30790;52.030;7.110;2022-07-23T07:17:36;3.20;;;1.92;;
41653;SDS011;30790;52.030;7.110;2022-07-23T07:20:02;4.18;;;2.20;;
41653;SDS011;30790;52.030;7.110;2022-07-23T07:22:27;6.30;;;2.20;;
41653;SDS011;30790;52.030;7.110;2022-07-23T07:24:53;5.35;;;2.13;;
41653;SDS011;30790;52.030;7.110;2022-07-23T07:27:18;3.65;;;1.75;;
41653;SDS011;30790;52.030;7.110;2022-07-23T07:29:43;3.70;;;1.70;;
41653;SDS011;30790;52.030;7.110;2022-07-23T07:32:09;7.07;;;1.80;;
41653;SDS011;30790;52.030;7.110;2022-07-23T07:34:34;6.50;;;1.83;;
41653;SDS011;30790;52.030;7.110;2022-07-23T07:36:59;4.45;;;2.22;;
41653;SDS011;30790;52.030;7.110;2022-07-23T07:39:25;12.95;;;2.97;;
41653;SDS011;30790;52.030;7.110;2022-07-23T07:41:50;5.82;;;1.50;;
41653;SDS011;30790;52.030;7.110;2022-07-23T07:44:15;6.68;;;1.95;;
41653;SDS011;30790;52.030;7.110;2022-07-23T07:46:41;5.30;;;2.30;;
41653;SDS011;30790;52.030;7.110;2022-07-23T07:49:06;4.32;;;1.83;;
41653;SDS011;30790;52.030;7.110;2022-07-23T07:51:32;7.75;;;1.75;;
41653;SDS011;30790;52.030;7.110;2022-07-23T07:53:57;4.10;;;1.67;;
41653;SDS011;30790;52.030;7.110;2022-07-23T07:56:23;3.63;;;1.83;;
41653;SDS011;30790;52.030;7.110;2022-07-23T07:58:48;10.35;;;1.85;;
41653;SDS011;30790;52.030;7.110;2022-07-23T08:01:14;7.05;;;1.70;;
41653;SDS011;30790;52.030;7.110;2022-07-23T08:03:39;7.10;;;1.92;;
41653;SDS011;30790;52.030;7.110;2022-07-23T08:06:04;3.83;;;1.63;;
41653;SDS011;30790;52.030;7.110;2022-07-23T08:08:30;9.32;;;2.13;;
41653;SDS011;30790;52.030;7.110;2022-07-23T08:10:55;8.82;;;1.98;;
41653;SDS011;30790;52.030;7.110;2022-07-23T08:13:20;4.72;;;1.70;;
41653;SDS011;30790;52.030;7.110;2022-07-23T08:15:46;5.15;;;1.90;;
41653;SDS011;30790;52.030;7.110;2022-07-23T08:18:11;5.70;;;2.05;;
41653;SDS011;30790;52.030;7.110;2022-07-23T08:20:36;5.32;;;1.70;;
41653;SDS011;30790;52.030;7.110;2022-07-23T08:23:03;4.53;;;1.40;;
41653;SDS011;30790;52.030;7.110;2022-07-23T08:25:47;4.53;;;1.55;;
41653;SDS011;30790;52.030;7.110;2022-07-23T08:28:14;3.35;;;1.60;;
41653;SDS011;30790;52.030;7.110;2022-07-23T08:30:41;10.48;;;2.13;;
41653;SDS011;30790;52.030;7.110;2022-07-23T08:33:11;3.75;;;1.35;;
41653;SDS011;30790;52.030;7.110;2022-07-23T08:35:39;3.72;;;1.70;;
41653;SDS011;30790;52.030;7.110;2022-07-23T08:38:07;1.65;;;1.08;;
41653;SDS011;30790;52.030;7.110;2022-07-23T08:40:35;7.00;;;2.05;;
41653;SDS011;30790;52.030;7.110;2022-07-23T08:43:04;3.55;;;1.40;;
41653;SDS011;30790;52.030;7.110;2022-07-23T08:45:31;11.35;;;2.17;;
41653;SDS011;30790;52.030;7.110;2022-07-23T08:48:01;2.67;;;1.48;;
41653;SDS011;30790;52.030;7.110;2022-07-23T08:50:28;4.60;;;1.20;;
41653;SDS011;30790;52.030;7.110;2022-07-23T08:52:53;3.92;;;1.65;;
41653;SDS011;30790;52.030;7.110;2022-07-23T08:55:19;4.80;;;1.45;;
41653;SDS011;30790;52.030;7.110;2022-07-23T08:57:47;3.75;;;1.40;;
41653;SDS011;30790;52.030;7.110;2022-07-23T09:00:14;2.22;;;1.63;;
41653;SDS011;30790;52.030;7.110;2022-07-23T09:02:40;2.72;;;1.60;;
41653;SDS011;30790;52.030;7.110;2022-07-23T09:05:07;2.08;;;1.30;;
41653;SDS011;30790;52.030;7.110;2022-07-23T09:07:35;4.65;;;1.70;;
41653;SDS011;30790;52.030;7.110;2022-07-23T09:10:04;3.40;;;1.35;;
41653;SDS011;30790;52.030;7.110;2022-07-23T09:12:35;3.85;;;1.65;;
41653;SDS011;30790;52.030;7.110;2022-07-23T09:15:08;3.40;;;1.70;;
41653;SDS011;30790;52.030;7.110;2022-07-23T09:17:38;3.60;;;1.60;;
41653;SDS011;30790;52.030;7.110;2022-07-23T09:20:12;5.47;;;1.75;;
41653;SDS011;30790;52.030;7.110;2022-07-23T09:22:46;7.55;;;2.05;;
41653;SDS011;30790;52.030;7.110;2022-07-23T09:25:13;4.75;;;1.63;;
41653;SDS011;30790;52.030;7.110;2022-07-23T09:27:51;5.72;;;2.05;;
41653;SDS011;30790;52.030;7.110;2022-07-23T09:30:27;6.05;;;1.48;;
41653;SDS011;30790;52.030;7.110;2022-07-23T09:33:03;6.88;;;1.77;;
41653;SDS011;30790;52.030;7.110;2022-07-23T09:38:18;2.95;;;1.30;;
41653;SDS011;30790;52.030;7.110;2022-07-23T09:40:46;3.53;;;1.38;;
41653;SDS011;30790;52.030;7.110;2022-07-23T09:43:30;3.00;;;1.52;;
41653;SDS011;30790;52.030;7.110;2022-07-23T09:46:16;4.20;;;1.80;;
41653;SDS011;30790;52.030;7.110;2022-07-23T09:48:56;3.17;;;1.65;;
41653;SDS011;30790;52.030;7.110;2022-07-23T09:51:21;3.05;;;1.27;;
41653;SDS011;30790;52.030;7.110;2022-07-23T09:53:48;3.53;;;1.52;;
41653;SDS011;30790;52.030;7.110;2022-07-23T09:56:14;2.90;;;1.63;;
41653;SDS011;30790;52.030;7.110;2022-07-23T09:58:40;3.25;;;1.50;;
41653;SDS011;30790;52.030;7.110;2022-07-23T10:01:16;4.38;;;1.35;;
41653;SDS011;30790;52.030;7.110;2022-07-23T10:03:42;2.80;;;1.52;;
41653;SDS011;30790;52.030;7.110;2022-07-23T10:06:10;2.45;;;1.35;;
41653;SDS011;30790;52.030;7.110;2022-07-23T10:08:39;2.53;;;1.40;;
41653;SDS011;30790;52.030;7.110;2022-07-23T10:11:06;3.17;;;1.48;;
41653;SDS011;30790;52.030;7.110;2022-07-23T10:13:32;3.03;;;1.27;;
41653;SDS011;30790;52.030;7.110;2022-07-23T10:16:15;5.60;;;1.70;;
41653;SDS011;30790;52.030;7.110;2022-07-23T10:18:40;7.50;;;1.73;;
41653;SDS011;30790;52.030;7.110;2022-07-23T10:21:07;4.15;;;1.70;;
41653;SDS011;30790;52.030;7.110;2022-07-23T10:23:35;3.33;;;1.42;;
41653;SDS011;30790;52.030;7.110;2022-07-23T10:26:12;3.83;;;1.25;;
41653;SDS011;30790;52.030;7.110;2022-07-23T10:28:59;3.60;;;1.55;;
41653;SDS011;30790;52.030;7.110;2022-07-23T10:31:35;1.80;;;1.13;;
41653;SDS011;30790;52.030;7.110;2022-07-23T10:34:12;2.10;;;1.63;;
41653;SDS011;30790;52.030;7.110;2022-07-23T10:36:47;4.07;;;1.20;;
41653;SDS011;30790;52.030;7.110;2022-07-23T10:39:29;3.70;;;1.20;;
41653;SDS011;30790;52.030;7.110;2022-07-23T10:42:18;4.97;;;1.50;;
41653;SDS011;30790;52.030;7.110;2022-07-23T10:44:43;3.00;;;1.40;;
41653;SDS011;30790;52.030;7.110;2022-07-23T10:47:10;2.40;;;1.17;;
41653;SDS011;30790;52.030;7.110;2022-07-23T10:50:16;4.22;;;1.73;;
41653;SDS011;30790;52.030;7.110;2022-07-23T10:53:07;2.78;;;1.10;;
41653;SDS011;30790;52.030;7.110;2022-07-23T10:57:59;2.53;;;1.20;;
41653;SDS011;30790;52.030;7.110;2022-07-23T11:00:28;3.83;;;1.88;;
41653;SDS011;30790;52.030;7.110;2022-07-23T11:02:56;2.83;;;1.27;;
41653;SDS011;30790;52.030;7.110;2022-07-23T11:05:27;1.70;;;1.10;;
41653;SDS011;30790;52.030;7.110;2022-07-23T11:32:05;1.52;;;1.10;;
41653;SDS011;30790;52.030;7.110;2022-07-23T11:34:44;3.80;;;1.30;;
41653;SDS011;30790;52.030;7.110;2022-07-23T11:37:34;2.38;;;1.25;;
41653;SDS011;30790;52.030;7.110;2022-07-23T11:40:02;1.73;;;1.23;;
41653;SDS011;30790;52.030;7.110;2022-07-23T11:42:51;3.65;;;1.25;;
41653;SDS011;30790;52.030;7.110;2022-07-23T11:45:21;7.10;;;1.35;;
41653;SDS011;30790;52.030;7.110;2022-07-23T11:47:48;2.95;;;1.08;;
41653;SDS011;30790;52.030;7.110;2022-07-23T11:50:13;1.42;;;1.33;;
41653;SDS011;30790;52.030;7.110;2022-07-23T11:52:39;2.28;;;1.35;;
41653;SDS011;30790;52.030;7.110;2022-07-23T11:55:05;2.45;;;1.10;;
41653;SDS011;30790;52.030;7.110;2022-07-23T11:57:34;2.13;;;1.10;;
41653;SDS011;30790;52.030;7.110;2022-07-23T12:00:04;2.20;;;1.20;;
41653;SDS011;30790;52.030;7.110;2022-07-23T12:02:46;3.92;;;1.27;;
41653;SDS011;30790;52.030;7.110;2022-07-23T12:05:13;1.38;;;1.23;;
41653;SDS011;30790;52.030;7.110;2022-07-23T12:07:47;2.63;;;1.40;;
41653;SDS011;30790;52.030;7.110;2022-07-23T12:10:18;1.35;;;1.00;;
41653;SDS011;30790;52.030;7.110;2022-07-23T12:12:47;2.05;;;1.10;;
41653;SDS011;30790;52.030;7.110;2022-07-23T12:15:14;1.60;;;1.33;;
41653;SDS011;30790;52.030;7.110;2022-07-23T12:17:42;4.10;;;1.30;;
41653;SDS011;30790;52.030;7.110;2022-07-23T12:20:11;1.90;;;1.10;;
41653;SDS011;30790;52.030;7.110;2022-07-23T12:22:40;3.20;;;1.30;;
41653;SDS011;30790;52.030;7.110;2022-07-23T12:25:08;2.22;;;1.20;;
41653;SDS011;30790;52.030;7.110;2022-07-23T12:27:36;2.08;;;1.30;;
41653;SDS011;30790;52.030;7.110;2022-07-23T12:30:14;2.00;;;1.17;;
41653;SDS011;30790;52.030;7.110;2022-07-23T12:32:44;3.70;;;1.30;;
41653;SDS011;30790;52.030;7.110;2022-07-23T12:35:11;1.60;;;1.30;;
41653;SDS011;30790;52.030;7.110;2022-07-23T12:37:38;1.42;;;1.13;;
41653;SDS011;30790;52.030;7.110;2022-07-23T12:40:50;5.80;;;1.20;;
41653;SDS011;30790;52.030;7.110;2022-07-23T12:43:10;4.20;;;1.45;;
41653;SDS011;30790;52.030;7.110;2022-07-23T12:45:50;1.95;;;1.30;;
41653;SDS011;30790;52.030;7.110;2022-07-23T12:48:26;6.10;;;1.75;;
41653;SDS011;30790;52.030;7.110;2022-07-23T12:53:26;5.10;;;1.50;;
41653;SDS011;30790;52.030;7.110;2022-07-23T12:56:03;2.50;;;1.30;;
41653;SDS011;30790;52.030;7.110;2022-07-23T12:58:50;1.90;;;1.23;;
41653;SDS011;30790;52.030;7.110;2022-07-23T13:03:56;2.22;;;1.30;;
41653;SDS011;30790;52.030;7.110;2022-07-23T13:06:25;3.47;;;1.65;;
41653;SDS011;30790;52.030;7.110;2022-07-23T13:08:51;2.35;;;1.63;;
41653;SDS011;30790;52.030;7.110;2022-07-23T13:11:16;2.45;;;1.52;;
41653;SDS011;30790;52.030;7.110;2022-07-23T13:13:42;1.58;;;1.13;;
41653;SDS011;30790;52.030;7.110;2022-07-23T13:16:07;5.10;;;1.50;;
41653;SDS011;30790;52.030;7.110;2022-07-23T13:18:32;13.80;;;2.65;;
41653;SDS011;30790;52.030;7.110;2022-07-23T13:20:58;14.25;;;2.47;;
41653;SDS011;30790;52.030;7.110;2022-07-23T13:23:24;6.75;;;2.10;;
41653;SDS011;30790;52.030;7.110;2022-07-23T13:25:52;14.95;;;2.53;;
41653;SDS011;30790;52.030;7.110;2022-07-23T13:28:18;23.30;;;2.85;;
41653;SDS011;30790;52.030;7.110;2022-07-23T13:30:45;26.60;;;3.85;;
41653;SDS011;30790;52.030;7.110;2022-07-23T13:33:14;17.25;;;3.22;;
41653;SDS011;30790;52.030;7.110;2022-07-23T13:35:39;24.25;;;3.30;;
41653;SDS011;30790;52.030;7.110;2022-07-23T13:38:05;21.65;;;4.03;;
41653;SDS011;30790;52.030;7.110;2022-07-23T13:40:33;18.88;;;3.58;;
41653;SDS011;30790;52.030;7.110;2022-07-23T13:43:07;20.40;;;3.58;;
41653;SDS011;30790;52.030;7.110;2022-07-23T13:45:34;22.13;;;3.42;;
41653;SDS011;30790;52.030;7.110;2022-07-23T13:47:59;22.40;;;3.95;;
41653;SDS011;30790;52.030;7.110;2022-07-23T13:50:25;34.15;;;5.32;;
41653;SDS011;30790;52.030;7.110;2022-07-23T13:52:50;38.35;;;5.57;;
41653;SDS011;30790;52.030;7.110;2022-07-23T13:55:16;30.98;;;5.40;;
41653;SDS011;30790;52.030;7.110;2022-07-23T13:57:42;25.52;;;3.72;;
41653;SDS011;30790;52.030;7.110;2022-07-23T14:00:08;28.50;;;4.28;;
41653;SDS011;30790;52.030;7.110;2022-07-23T14:02:36;37.33;;;4.95;;
41653;SDS011;30790;52.030;7.110;2022-07-23T14:05:03;32.58;;;5.10;;
41653;SDS011;30790;52.030;7.110;2022-07-23T14:07:33;29.27;;;4.93;;
41653;SDS011;30790;52.030;7.110;2022-07-23T14:09:59;29.42;;;4.78;;
41653;SDS011;30790;52.030;7.110;2022-07-23T14:12:24;26.60;;;3.72;;
41653;SDS011;30790;52.030;7.110;2022-07-23T14:14:50;24.90;;;3.83;;
41653;SDS011;30790;52.030;7.110;2022-07-23T14:17:16;21.27;;;4.25;;
41653;SDS011;30790;52.030;7.110;2022-07-23T14:19:41;22.02;;;4.32;;
41653;SDS011;30790;52.030;7.110;2022-07-23T14:22:06;27.85;;;4.68;;
41653;SDS011;30790;52.030;7.110;2022-07-23T14:24:32;21.15;;;3.80;;
41653;SDS011;30790;52.030;7.110;2022-07-23T14:26:59;21.13;;;3.90;;
41653;SDS011;30790;52.030;7.110;2022-07-23T14:29:25;23.52;;;3.97;;
41653;SDS011;30790;52.030;7.110;2022-07-23T14:31:50;27.58;;;4.57;;
41653;SDS011;30790;52.030;7.110;2022-07-23T14:34:16;15.18;;;3.88;;
41653;SDS011;30790;52.030;7.110;2022-07-23T14:36:41;19.83;;;4.57;;
41653;SDS011;30790;52.030;7.110;2022-07-23T14:39:07;16.05;;;4.05;;
41653;SDS011;30790;52.030;7.110;2022-07-23T14:41:33;22.05;;;4.32;;
41653;SDS011;30790;52.030;7.110;2022-07-23T14:43:59;27.27;;;4.50;;
41653;SDS011;30790;52.030;7.110;2022-07-23T14:46:24;18.75;;;3.65;;
41653;SDS011;30790;52.030;7.110;2022-07-23T14:48:50;23.10;;;4.18;;
41653;SDS011;30790;52.030;7.110;2022-07-23T14:51:16;22.13;;;4.97;;
41653;SDS011;30790;52.030;7.110;2022-07-23T14:53:41;23.63;;;4.93;;
41653;SDS011;30790;52.030;7.110;2022-07-23T14:56:06;28.35;;;4.53;;
41653;SDS011;30790;52.030;7.110;2022-07-23T14:58:32;18.80;;;3.90;;
41653;SDS011;30790;52.030;7.110;2022-07-23T15:00:57;18.15;;;3.58;;
41653;SDS011;30790;52.030;7.110;2022-07-23T15:03:22;22.80;;;4.93;;
41653;SDS011;30790;52.030;7.110;2022-07-23T15:05:49;22.88;;;3.72;;
41653;SDS011;30790;52.030;7.110;2022-07-23T15:08:14;17.50;;;4.10;;
41653;SDS011;30790;52.030;7.110;2022-07-23T15:10:40;21.08;;;3.90;;
41653;SDS011;30790;52.030;7.110;2022-07-23T15:13:05;39.97;;;5.57;;
41653;SDS011;30790;52.030;7.110;2022-07-23T15:15:31;30.75;;;4.53;;
41653;SDS011;30790;52.030;7.110;2022-07-23T15:17:56;38.10;;;6.13;;
41653;SDS011;30790;52.030;7.110;2022-07-23T15:20:21;41.25;;;6.40;;